sensor_id;sensor_type;location;lat;lon;timestamp;P1;durP1;ratioP1;P2;durP2;ratioP2
67889;SDS011;54685;52.082;5.426;2022-12-29T00:00:54;4.28;;;1.90;;
67889;SDS011;54685;52.082;5.426;2022-12-29T00:03:21;4.72;;;2.00;;
67889;SDS011;54685;52.082;5.426;2022-12-29T00:05:53;2.30;;;1.80;;
67889;SDS011;54685;52.082;5.426;2022-12-29T00:08:23;2.78;;;1.55;;
67889;SDS011;54685;52.082;5.426;2022-12-29T00:11:16;2.67;;;1.60;;
67889;SDS011;54685;52.082;5.426;2022-12-29T00:13:44;3.45;;;1.50;;
67889;SDS011;54685;52.082;5.426;2022-12-29T00:16:31;2.20;;;1.65;;
67889;SDS011;54685;52.082;5.426;2022-12-29T00:18:59;2.22;;;1.60;;
67889;SDS011;54685;52.082;5.426;2022-12-29T00:21:26;2.20;;;1.90;;
67889;SDS011;54685;52.082;5.426;2022-12-29T00:24:14;1.65;;;1.55;;
67889;SDS011;54685;52.082;5.426;2022-12-29T00:26:57;4.35;;;1.63;;
67889;SDS011;54685;52.082;5.426;2022-12-29T00:29:44;1.70;;;1.50;;
67889;SDS011;54685;52.082;5.426;2022-12-29T00:32:30;2.03;;;1.58;;
67889;SDS011;54685;52.082;5.426;2022-12-29T00:35:22;2.10;;;1.73;;
67889;SDS011;54685;52.082;5.426;2022-12-29T00:37:52;3.25;;;1.50;;
67889;SDS011;54685;52.082;5.426;2022-12-29T00:40:40;1.55;;;1.20;;
67889;SDS011;54685;52.082;5.426;2022-12-29T00:43:25;1.92;;;1.42;;
67889;SDS011;54685;52.082;5.426;2022-12-29T00:46:11;2.40;;;1.40;;
67889;SDS011;54685;52.082;5.426;2022-12-29T00:48:45;1.92;;;1.50;;
67889;SDS011;54685;52.082;5.426;2022-12-29T00:51:30;1.98;;;1.45;;
67889;SDS011;54685;52.082;5.426;2022-12-29T00:53:57;2.35;;;1.52;;
67889;SDS011;54685;52.082;5.426;2022-12-29T00:56:24;2.67;;;1.50;;
67889;SDS011;54685;52.082;5.426;2022-12-29T00:58:51;1.98;;;1.20;;
67889;SDS011;54685;52.082;5.426;2022-12-29T01:01:18;2.05;;;1.42;;
67889;SDS011;54685;52.082;5.426;2022-12-29T01:03:44;1.77;;;1.50;;
67889;SDS011;54685;52.082;5.426;2022-12-29T01:06:12;2.80;;;1.20;;
67889;SDS011;54685;52.082;5.426;2022-12-29T01:08:40;2.65;;;0.95;;
67889;SDS011;54685;52.082;5.426;2022-12-29T01:11:10;1.77;;;1.40;;
67889;SDS011;54685;52.082;5.426;2022-12-29T01:13:39;1.73;;;1.23;;
67889;SDS011;54685;52.082;5.426;2022-12-29T01:16:07;3.30;;;1.25;;
67889;SDS011;54685;52.082;5.426;2022-12-29T01:18:34;2.63;;;1.23;;
67889;SDS011;54685;52.082;5.426;2022-12-29T01:21:02;2.85;;;1.20;;
67889;SDS011;54685;52.082;5.426;2022-12-29T01:23:31;3.33;;;1.10;;
67889;SDS011;54685;52.082;5.426;2022-12-29T01:26:07;1.73;;;1.30;;
67889;SDS011;54685;52.082;5.426;2022-12-29T01:28:39;2.70;;;1.30;;
67889;SDS011;54685;52.082;5.426;2022-12-29T01:31:08;1.73;;;0.98;;
67889;SDS011;54685;52.082;5.426;2022-12-29T01:33:36;4.38;;;1.38;;
67889;SDS011;54685;52.082;5.426;2022-12-29T01:36:03;2.03;;;1.10;;
67889;SDS011;54685;52.082;5.426;2022-12-29T01:38:32;1.85;;;1.25;;
67889;SDS011;54685;52.082;5.426;2022-12-29T01:41:00;2.50;;;1.00;;
67889;SDS011;54685;52.082;5.426;2022-12-29T01:49:02;3.97;;;1.27;;
67889;SDS011;54685;52.082;5.426;2022-12-29T01:51:41;1.15;;;1.05;;
67889;SDS011;54685;52.082;5.426;2022-12-29T01:56:59;1.85;;;1.30;;
67889;SDS011;54685;52.082;5.426;2022-12-29T01:59:30;3.08;;;1.67;;
67889;SDS011;54685;52.082;5.426;2022-12-29T02:02:00;2.60;;;1.50;;
67889;SDS011;54685;52.082;5.426;2022-12-29T02:04:29;1.88;;;1.33;;
67889;SDS011;54685;52.082;5.426;2022-12-29T02:07:03;2.33;;;1.27;;
67889;SDS011;54685;52.082;5.426;2022-12-29T02:09:34;1.30;;;1.20;;
67889;SDS011;54685;52.082;5.426;2022-12-29T02:12:00;2.30;;;1.38;;
67889;SDS011;54685;52.082;5.426;2022-12-29T02:14:28;3.33;;;1.42;;
67889;SDS011;54685;52.082;5.426;2022-12-29T02:30:27;3.38;;;1.15;;
67889;SDS011;54685;52.082;5.426;2022-12-29T02:39:05;1.05;;;0.80;;
67889;SDS011;54685;52.082;5.426;2022-12-29T02:49:59;5.10;;;0.88;;
67889;SDS011;54685;52.082;5.426;2022-12-29T02:52:39;2.88;;;0.85;;
67889;SDS011;54685;52.082;5.426;2022-12-29T02:55:17;0.95;;;0.63;;
67889;SDS011;54685;52.082;5.426;2022-12-29T02:57:44;1.90;;;0.77;;
67889;SDS011;54685;52.082;5.426;2022-12-29T03:00:13;2.92;;;0.55;;
67889;SDS011;54685;52.082;5.426;2022-12-29T03:11:07;1.73;;;0.65;;
67889;SDS011;54685;52.082;5.426;2022-12-29T03:14:29;3.65;;;0.80;;
67889;SDS011;54685;52.082;5.426;2022-12-29T03:17:26;5.05;;;1.08;;
67889;SDS011;54685;52.082;5.426;2022-12-29T03:20:06;1.42;;;0.60;;
67889;SDS011;54685;52.082;5.426;2022-12-29T03:22:39;1.60;;;0.75;;
67889;SDS011;54685;52.082;5.426;2022-12-29T03:25:14;2.78;;;0.70;;
67889;SDS011;54685;52.082;5.426;2022-12-29T03:27:55;4.13;;;1.23;;
67889;SDS011;54685;52.082;5.426;2022-12-29T03:30:26;5.15;;;0.90;;
67889;SDS011;54685;52.082;5.426;2022-12-29T03:33:00;3.35;;;1.00;;
67889;SDS011;54685;52.082;5.426;2022-12-29T03:35:32;4.72;;;0.80;;
67889;SDS011;54685;52.082;5.426;2022-12-29T03:40:49;2.83;;;0.87;;
67889;SDS011;54685;52.082;5.426;2022-12-29T03:43:24;2.70;;;0.88;;
67889;SDS011;54685;52.082;5.426;2022-12-29T03:45:53;1.65;;;0.75;;
67889;SDS011;54685;52.082;5.426;2022-12-29T03:48:21;1.25;;;0.70;;
67889;SDS011;54685;52.082;5.426;2022-12-29T03:50:49;3.20;;;0.77;;
67889;SDS011;54685;52.082;5.426;2022-12-29T03:53:16;6.20;;;0.95;;
67889;SDS011;54685;52.082;5.426;2022-12-29T03:55:44;3.03;;;0.80;;
67889;SDS011;54685;52.082;5.426;2022-12-29T03:58:11;3.40;;;0.98;;
67889;SDS011;54685;52.082;5.426;2022-12-29T04:00:49;4.30;;;0.98;;
67889;SDS011;54685;52.082;5.426;2022-12-29T04:03:16;2.25;;;0.88;;
67889;SDS011;54685;52.082;5.426;2022-12-29T04:05:43;3.10;;;0.77;;
67889;SDS011;54685;52.082;5.426;2022-12-29T04:08:10;1.90;;;0.80;;
67889;SDS011;54685;52.082;5.426;2022-12-29T04:10:37;2.70;;;0.80;;
67889;SDS011;54685;52.082;5.426;2022-12-29T04:13:04;2.50;;;0.93;;
67889;SDS011;54685;52.082;5.426;2022-12-29T04:15:32;3.75;;;0.80;;
67889;SDS011;54685;52.082;5.426;2022-12-29T04:18:00;3.40;;;0.98;;
67889;SDS011;54685;52.082;5.426;2022-12-29T04:20:27;2.22;;;0.80;;
67889;SDS011;54685;52.082;5.426;2022-12-29T04:23:13;2.13;;;0.80;;
67889;SDS011;54685;52.082;5.426;2022-12-29T04:25:40;4.15;;;0.80;;
67889;SDS011;54685;52.082;5.426;2022-12-29T04:28:08;5.35;;;1.00;;
67889;SDS011;54685;52.082;5.426;2022-12-29T04:30:43;3.88;;;1.27;;
67889;SDS011;54685;52.082;5.426;2022-12-29T04:33:20;6.30;;;1.75;;
67889;SDS011;54685;52.082;5.426;2022-12-29T04:35:47;6.55;;;0.82;;
67889;SDS011;54685;52.082;5.426;2022-12-29T04:38:15;7.82;;;1.77;;
67889;SDS011;54685;52.082;5.426;2022-12-29T04:40:44;7.50;;;1.10;;
67889;SDS011;54685;52.082;5.426;2022-12-29T04:43:11;6.32;;;1.20;;
67889;SDS011;54685;52.082;5.426;2022-12-29T04:45:58;4.35;;;0.98;;
67889;SDS011;54685;52.082;5.426;2022-12-29T04:48:31;7.30;;;1.33;;
67889;SDS011;54685;52.082;5.426;2022-12-29T04:51:18;8.80;;;1.95;;
67889;SDS011;54685;52.082;5.426;2022-12-29T04:53:45;7.93;;;1.40;;
67889;SDS011;54685;52.082;5.426;2022-12-29T04:56:12;8.32;;;1.20;;
67889;SDS011;54685;52.082;5.426;2022-12-29T04:58:39;6.57;;;1.10;;
67889;SDS011;54685;52.082;5.426;2022-12-29T05:01:06;7.28;;;1.50;;
67889;SDS011;54685;52.082;5.426;2022-12-29T05:03:33;5.63;;;1.20;;
67889;SDS011;54685;52.082;5.426;2022-12-29T05:06:00;10.38;;;1.70;;
67889;SDS011;54685;52.082;5.426;2022-12-29T05:08:26;8.57;;;1.92;;
67889;SDS011;54685;52.082;5.426;2022-12-29T05:10:57;7.28;;;1.10;;
67889;SDS011;54685;52.082;5.426;2022-12-29T05:13:24;6.30;;;1.42;;
67889;SDS011;54685;52.082;5.426;2022-12-29T05:15:51;8.68;;;1.60;;
67889;SDS011;54685;52.082;5.426;2022-12-29T05:18:21;11.55;;;1.70;;
67889;SDS011;54685;52.082;5.426;2022-12-29T05:20:48;9.35;;;1.60;;
67889;SDS011;54685;52.082;5.426;2022-12-29T05:23:17;11.38;;;1.40;;
67889;SDS011;54685;52.082;5.426;2022-12-29T05:25:48;9.65;;;1.50;;
67889;SDS011;54685;52.082;5.426;2022-12-29T05:28:34;7.32;;;1.40;;
67889;SDS011;54685;52.082;5.426;2022-12-29T05:31:10;9.35;;;1.35;;
67889;SDS011;54685;52.082;5.426;2022-12-29T05:33:37;9.02;;;1.13;;
67889;SDS011;54685;52.082;5.426;2022-12-29T05:36:05;8.52;;;1.50;;
67889;SDS011;54685;52.082;5.426;2022-12-29T05:38:35;10.50;;;1.73;;
67889;SDS011;54685;52.082;5.426;2022-12-29T05:41:02;10.10;;;1.33;;
67889;SDS011;54685;52.082;5.426;2022-12-29T05:43:52;8.38;;;1.58;;
67889;SDS011;54685;52.082;5.426;2022-12-29T05:46:37;7.57;;;0.98;;
67889;SDS011;54685;52.082;5.426;2022-12-29T05:49:09;13.77;;;1.70;;
67889;SDS011;54685;52.082;5.426;2022-12-29T05:51:56;11.35;;;1.50;;
67889;SDS011;54685;52.082;5.426;2022-12-29T05:54:23;11.32;;;1.42;;
67889;SDS011;54685;52.082;5.426;2022-12-29T05:56:50;9.00;;;1.83;;
67889;SDS011;54685;52.082;5.426;2022-12-29T05:59:17;8.60;;;1.70;;
67889;SDS011;54685;52.082;5.426;2022-12-29T06:01:44;11.38;;;1.60;;
67889;SDS011;54685;52.082;5.426;2022-12-29T06:04:11;9.13;;;1.45;;
67889;SDS011;54685;52.082;5.426;2022-12-29T06:06:38;8.45;;;1.55;;
67889;SDS011;54685;52.082;5.426;2022-12-29T06:09:11;6.75;;;1.38;;
67889;SDS011;54685;52.082;5.426;2022-12-29T06:11:38;7.90;;;1.88;;
67889;SDS011;54685;52.082;5.426;2022-12-29T06:14:05;7.32;;;1.05;;
67889;SDS011;54685;52.082;5.426;2022-12-29T06:16:32;8.85;;;1.35;;
67889;SDS011;54685;52.082;5.426;2022-12-29T06:19:01;8.25;;;1.50;;
67889;SDS011;54685;52.082;5.426;2022-12-29T06:21:29;13.57;;;2.17;;
67889;SDS011;54685;52.082;5.426;2022-12-29T06:23:59;10.05;;;1.33;;
67889;SDS011;54685;52.082;5.426;2022-12-29T06:26:25;9.63;;;1.45;;
67889;SDS011;54685;52.082;5.426;2022-12-29T06:28:52;7.47;;;1.40;;
67889;SDS011;54685;52.082;5.426;2022-12-29T06:31:19;6.72;;;1.58;;
67889;SDS011;54685;52.082;5.426;2022-12-29T06:33:47;16.00;;;1.65;;
67889;SDS011;54685;52.082;5.426;2022-12-29T06:36:15;13.23;;;1.92;;
67889;SDS011;54685;52.082;5.426;2022-12-29T06:38:42;10.00;;;1.63;;
67889;SDS011;54685;52.082;5.426;2022-12-29T06:41:09;9.20;;;1.50;;
67889;SDS011;54685;52.082;5.426;2022-12-29T06:43:36;13.65;;;2.35;;
67889;SDS011;54685;52.082;5.426;2022-12-29T06:46:14;8.43;;;1.38;;
67889;SDS011;54685;52.082;5.426;2022-12-29T06:48:42;10.02;;;1.50;;
67889;SDS011;54685;52.082;5.426;2022-12-29T06:51:09;9.82;;;1.73;;
67889;SDS011;54685;52.082;5.426;2022-12-29T06:53:35;10.45;;;1.58;;
67889;SDS011;54685;52.082;5.426;2022-12-29T06:56:05;12.75;;;1.45;;
67889;SDS011;54685;52.082;5.426;2022-12-29T06:58:32;6.78;;;1.27;;
67889;SDS011;54685;52.082;5.426;2022-12-29T07:00:59;8.27;;;1.27;;
67889;SDS011;54685;52.082;5.426;2022-12-29T07:03:26;8.60;;;1.42;;
67889;SDS011;54685;52.082;5.426;2022-12-29T07:05:52;12.00;;;2.08;;
67889;SDS011;54685;52.082;5.426;2022-12-29T07:08:20;6.85;;;1.20;;
67889;SDS011;54685;52.082;5.426;2022-12-29T07:10:47;7.90;;;1.30;;
67889;SDS011;54685;52.082;5.426;2022-12-29T07:13:14;7.45;;;1.70;;
67889;SDS011;54685;52.082;5.426;2022-12-29T07:15:41;15.18;;;2.40;;
67889;SDS011;54685;52.082;5.426;2022-12-29T07:18:07;8.68;;;1.30;;
67889;SDS011;54685;52.082;5.426;2022-12-29T07:20:34;11.40;;;1.83;;
67889;SDS011;54685;52.082;5.426;2022-12-29T07:23:01;8.77;;;1.60;;
67889;SDS011;54685;52.082;5.426;2022-12-29T07:25:28;5.47;;;1.58;;
67889;SDS011;54685;52.082;5.426;2022-12-29T07:27:55;9.18;;;1.48;;
67889;SDS011;54685;52.082;5.426;2022-12-29T07:30:22;9.23;;;1.60;;
67889;SDS011;54685;52.082;5.426;2022-12-29T07:32:49;12.48;;;1.50;;
67889;SDS011;54685;52.082;5.426;2022-12-29T07:35:16;10.48;;;1.73;;
67889;SDS011;54685;52.082;5.426;2022-12-29T07:37:42;8.27;;;1.63;;
67889;SDS011;54685;52.082;5.426;2022-12-29T07:40:09;7.13;;;1.63;;
67889;SDS011;54685;52.082;5.426;2022-12-29T07:42:36;10.90;;;1.50;;
67889;SDS011;54685;52.082;5.426;2022-12-29T07:45:07;7.97;;;1.67;;
67889;SDS011;54685;52.082;5.426;2022-12-29T07:47:52;9.35;;;1.70;;
67889;SDS011;54685;52.082;5.426;2022-12-29T07:50:19;7.57;;;1.50;;
67889;SDS011;54685;52.082;5.426;2022-12-29T07:52:46;10.90;;;2.80;;
67889;SDS011;54685;52.082;5.426;2022-12-29T07:55:14;12.25;;;1.70;;
67889;SDS011;54685;52.082;5.426;2022-12-29T07:57:42;12.07;;;2.10;;
67889;SDS011;54685;52.082;5.426;2022-12-29T08:00:09;5.22;;;1.27;;
67889;SDS011;54685;52.082;5.426;2022-12-29T08:02:39;10.85;;;1.92;;
67889;SDS011;54685;52.082;5.426;2022-12-29T08:05:06;21.40;;;2.40;;
67889;SDS011;54685;52.082;5.426;2022-12-29T08:07:33;8.55;;;1.35;;
67889;SDS011;54685;52.082;5.426;2022-12-29T08:10:00;9.15;;;1.95;;
67889;SDS011;54685;52.082;5.426;2022-12-29T08:12:27;6.85;;;1.48;;
67889;SDS011;54685;52.082;5.426;2022-12-29T08:14:54;11.10;;;2.30;;
67889;SDS011;54685;52.082;5.426;2022-12-29T08:17:21;9.25;;;1.40;;
67889;SDS011;54685;52.082;5.426;2022-12-29T08:19:51;8.93;;;1.60;;
67889;SDS011;54685;52.082;5.426;2022-12-29T08:22:17;10.70;;;1.95;;
67889;SDS011;54685;52.082;5.426;2022-12-29T08:24:44;16.33;;;5.15;;
67889;SDS011;54685;52.082;5.426;2022-12-29T08:27:11;13.85;;;2.42;;
67889;SDS011;54685;52.082;5.426;2022-12-29T08:29:46;12.60;;;2.00;;
67889;SDS011;54685;52.082;5.426;2022-12-29T08:32:13;17.33;;;2.70;;
67889;SDS011;54685;52.082;5.426;2022-12-29T08:34:39;17.58;;;3.75;;
67889;SDS011;54685;52.082;5.426;2022-12-29T08:37:06;11.55;;;1.95;;
67889;SDS011;54685;52.082;5.426;2022-12-29T08:39:33;8.00;;;1.63;;
67889;SDS011;54685;52.082;5.426;2022-12-29T08:42:00;13.10;;;2.08;;
67889;SDS011;54685;52.082;5.426;2022-12-29T08:44:29;13.45;;;2.20;;
67889;SDS011;54685;52.082;5.426;2022-12-29T08:46:56;8.73;;;1.40;;
67889;SDS011;54685;52.082;5.426;2022-12-29T08:49:23;14.18;;;2.13;;
67889;SDS011;54685;52.082;5.426;2022-12-29T08:51:50;9.45;;;1.60;;
67889;SDS011;54685;52.082;5.426;2022-12-29T08:54:23;8.05;;;1.25;;
67889;SDS011;54685;52.082;5.426;2022-12-29T08:56:50;10.23;;;1.98;;
67889;SDS011;54685;52.082;5.426;2022-12-29T08:59:17;18.13;;;2.72;;
67889;SDS011;54685;52.082;5.426;2022-12-29T09:01:46;10.30;;;1.90;;
67889;SDS011;54685;52.082;5.426;2022-12-29T09:04:13;6.93;;;1.70;;
67889;SDS011;54685;52.082;5.426;2022-12-29T09:06:43;12.98;;;1.63;;
67889;SDS011;54685;52.082;5.426;2022-12-29T09:09:11;10.40;;;1.98;;
67889;SDS011;54685;52.082;5.426;2022-12-29T09:11:38;5.85;;;1.73;;
67889;SDS011;54685;52.082;5.426;2022-12-29T09:14:05;11.00;;;1.85;;
67889;SDS011;54685;52.082;5.426;2022-12-29T09:16:33;10.10;;;1.80;;
67889;SDS011;54685;52.082;5.426;2022-12-29T09:19:03;16.35;;;2.17;;
67889;SDS011;54685;52.082;5.426;2022-12-29T09:21:30;11.32;;;1.83;;
67889;SDS011;54685;52.082;5.426;2022-12-29T09:23:57;12.48;;;1.77;;
67889;SDS011;54685;52.082;5.426;2022-12-29T09:26:24;9.27;;;1.92;;
67889;SDS011;54685;52.082;5.426;2022-12-29T09:28:51;13.30;;;1.90;;
67889;SDS011;54685;52.082;5.426;2022-12-29T09:31:18;13.50;;;2.70;;
67889;SDS011;54685;52.082;5.426;2022-12-29T09:33:45;9.43;;;1.65;;
67889;SDS011;54685;52.082;5.426;2022-12-29T09:36:12;9.25;;;2.00;;
67889;SDS011;54685;52.082;5.426;2022-12-29T09:38:39;9.93;;;1.65;;
67889;SDS011;54685;52.082;5.426;2022-12-29T09:41:20;7.18;;;1.52;;
67889;SDS011;54685;52.082;5.426;2022-12-29T09:46:52;12.07;;;1.95;;
67889;SDS011;54685;52.082;5.426;2022-12-29T09:49:28;12.23;;;1.73;;
67889;SDS011;54685;52.082;5.426;2022-12-29T09:52:22;10.68;;;1.42;;
67889;SDS011;54685;52.082;5.426;2022-12-29T09:55:00;15.98;;;2.30;;
67889;SDS011;54685;52.082;5.426;2022-12-29T09:57:43;12.85;;;2.08;;
67889;SDS011;54685;52.082;5.426;2022-12-29T10:00:16;13.52;;;2.08;;
67889;SDS011;54685;52.082;5.426;2022-12-29T10:05:48;9.52;;;1.83;;
67889;SDS011;54685;52.082;5.426;2022-12-29T10:08:37;9.23;;;1.67;;
67889;SDS011;54685;52.082;5.426;2022-12-29T10:12:12;9.07;;;1.35;;
67889;SDS011;54685;52.082;5.426;2022-12-29T10:23:03;8.55;;;1.55;;
67889;SDS011;54685;52.082;5.426;2022-12-29T10:25:46;12.73;;;1.98;;
67889;SDS011;54685;52.082;5.426;2022-12-29T10:28:19;13.30;;;2.03;;
67889;SDS011;54685;52.082;5.426;2022-12-29T10:30:48;7.95;;;1.45;;
67889;SDS011;54685;52.082;5.426;2022-12-29T10:33:19;8.18;;;1.80;;
67889;SDS011;54685;52.082;5.426;2022-12-29T10:35:50;9.02;;;1.58;;
67889;SDS011;54685;52.082;5.426;2022-12-29T10:38:25;13.23;;;2.10;;
67889;SDS011;54685;52.082;5.426;2022-12-29T10:40:58;8.10;;;1.60;;
67889;SDS011;54685;52.082;5.426;2022-12-29T10:46:20;13.88;;;2.47;;
67889;SDS011;54685;52.082;5.426;2022-12-29T10:48:50;14.15;;;2.63;;
67889;SDS011;54685;52.082;5.426;2022-12-29T10:51:20;9.18;;;2.08;;
67889;SDS011;54685;52.082;5.426;2022-12-29T10:53:59;8.77;;;2.60;;
67889;SDS011;54685;52.082;5.426;2022-12-29T10:56:34;12.65;;;4.53;;
67889;SDS011;54685;52.082;5.426;2022-12-29T11:01:40;10.85;;;2.58;;
67889;SDS011;54685;52.082;5.426;2022-12-29T11:07:28;18.20;;;2.55;;
67889;SDS011;54685;52.082;5.426;2022-12-29T11:10:16;10.38;;;2.42;;
67889;SDS011;54685;52.082;5.426;2022-12-29T11:12:59;15.82;;;2.47;;
67889;SDS011;54685;52.082;5.426;2022-12-29T11:15:38;19.85;;;3.72;;
67889;SDS011;54685;52.082;5.426;2022-12-29T11:20:45;18.33;;;3.30;;
67889;SDS011;54685;52.082;5.426;2022-12-29T11:23:31;19.30;;;3.33;;
67889;SDS011;54685;52.082;5.426;2022-12-29T11:26:43;15.07;;;3.03;;
67889;SDS011;54685;52.082;5.426;2022-12-29T11:29:09;19.45;;;3.75;;
67889;SDS011;54685;52.082;5.426;2022-12-29T11:31:40;14.93;;;2.80;;
67889;SDS011;54685;52.082;5.426;2022-12-29T11:34:08;17.70;;;3.25;;
67889;SDS011;54685;52.082;5.426;2022-12-29T11:37:39;16.60;;;2.97;;
67889;SDS011;54685;52.082;5.426;2022-12-29T11:39:57;20.17;;;3.80;;
67889;SDS011;54685;52.082;5.426;2022-12-29T11:42:35;13.38;;;2.83;;
67889;SDS011;54685;52.082;5.426;2022-12-29T11:47:55;15.43;;;3.00;;
67889;SDS011;54685;52.082;5.426;2022-12-29T11:50:33;16.67;;;2.72;;
67889;SDS011;54685;52.082;5.426;2022-12-29T11:53:14;13.38;;;2.40;;
67889;SDS011;54685;52.082;5.426;2022-12-29T11:56:07;18.67;;;3.33;;
67889;SDS011;54685;52.082;5.426;2022-12-29T11:58:37;9.27;;;2.15;;
67889;SDS011;54685;52.082;5.426;2022-12-29T12:01:32;7.25;;;1.85;;
67889;SDS011;54685;52.082;5.426;2022-12-29T12:04:04;10.77;;;2.30;;
67889;SDS011;54685;52.082;5.426;2022-12-29T12:06:43;17.38;;;2.50;;
67889;SDS011;54685;52.082;5.426;2022-12-29T12:09:19;18.45;;;2.75;;
67889;SDS011;54685;52.082;5.426;2022-12-29T12:11:51;12.48;;;2.38;;
67889;SDS011;54685;52.082;5.426;2022-12-29T12:14:25;13.55;;;2.35;;
67889;SDS011;54685;52.082;5.426;2022-12-29T12:17:33;21.15;;;3.15;;
67889;SDS011;54685;52.082;5.426;2022-12-29T12:20:15;20.55;;;2.83;;
67889;SDS011;54685;52.082;5.426;2022-12-29T12:22:53;15.60;;;3.63;;
67889;SDS011;54685;52.082;5.426;2022-12-29T12:25:37;18.38;;;3.05;;
67889;SDS011;54685;52.082;5.426;2022-12-29T12:28:10;21.58;;;3.38;;
67889;SDS011;54685;52.082;5.426;2022-12-29T12:30:47;16.25;;;2.65;;
67889;SDS011;54685;52.082;5.426;2022-12-29T12:36:22;15.13;;;2.83;;
67889;SDS011;54685;52.082;5.426;2022-12-29T12:42:09;11.48;;;2.67;;
67889;SDS011;54685;52.082;5.426;2022-12-29T13:10:02;13.88;;;2.58;;
67889;SDS011;54685;52.082;5.426;2022-12-29T13:18:19;23.45;;;3.72;;
67889;SDS011;54685;52.082;5.426;2022-12-29T13:20:54;14.98;;;3.10;;
67889;SDS011;54685;52.082;5.426;2022-12-29T13:23:55;21.42;;;2.75;;
67889;SDS011;54685;52.082;5.426;2022-12-29T13:26:46;16.90;;;2.42;;
67889;SDS011;54685;52.082;5.426;2022-12-29T13:29:36;20.17;;;3.97;;
67889;SDS011;54685;52.082;5.426;2022-12-29T13:37:47;18.88;;;3.78;;
67889;SDS011;54685;52.082;5.426;2022-12-29T13:40:24;15.23;;;3.17;;
67889;SDS011;54685;52.082;5.426;2022-12-29T13:42:54;22.67;;;3.67;;
67889;SDS011;54685;52.082;5.426;2022-12-29T13:45:24;13.50;;;3.13;;
67889;SDS011;54685;52.082;5.426;2022-12-29T13:47:54;15.57;;;3.17;;
67889;SDS011;54685;52.082;5.426;2022-12-29T13:50:42;11.68;;;3.20;;
67889;SDS011;54685;52.082;5.426;2022-12-29T13:56:09;17.10;;;3.13;;
67889;SDS011;54685;52.082;5.426;2022-12-29T14:01:28;13.35;;;2.63;;
67889;SDS011;54685;52.082;5.426;2022-12-29T14:03:57;24.30;;;3.30;;
67889;SDS011;54685;52.082;5.426;2022-12-29T14:06:29;12.18;;;2.90;;
67889;SDS011;54685;52.082;5.426;2022-12-29T14:08:58;16.55;;;2.67;;
67889;SDS011;54685;52.082;5.426;2022-12-29T14:11:35;17.55;;;2.38;;
67889;SDS011;54685;52.082;5.426;2022-12-29T14:16:51;7.25;;;2.22;;
67889;SDS011;54685;52.082;5.426;2022-12-29T14:21:50;10.32;;;2.03;;
67889;SDS011;54685;52.082;5.426;2022-12-29T14:24:40;7.28;;;2.05;;
67889;SDS011;54685;52.082;5.426;2022-12-29T14:42:48;1.67;;;0.52;;
67889;SDS011;54685;52.082;5.426;2022-12-29T14:47:45;7.50;;;1.33;;
67889;SDS011;54685;52.082;5.426;2022-12-29T14:50:18;5.77;;;1.33;;
67889;SDS011;54685;52.082;5.426;2022-12-29T14:52:54;6.63;;;1.90;;
67889;SDS011;54685;52.082;5.426;2022-12-29T14:55:38;5.82;;;1.70;;
67889;SDS011;54685;52.082;5.426;2022-12-29T14:58:14;7.85;;;1.50;;
67889;SDS011;54685;52.082;5.426;2022-12-29T15:00:52;11.95;;;1.85;;
67889;SDS011;54685;52.082;5.426;2022-12-29T15:03:20;7.28;;;1.65;;
67889;SDS011;54685;52.082;5.426;2022-12-29T15:05:56;9.50;;;2.58;;
67889;SDS011;54685;52.082;5.426;2022-12-29T15:08:36;7.38;;;2.03;;
67889;SDS011;54685;52.082;5.426;2022-12-29T15:11:24;9.50;;;2.00;;
67889;SDS011;54685;52.082;5.426;2022-12-29T15:17:10;12.32;;;2.40;;
67889;SDS011;54685;52.082;5.426;2022-12-29T15:19:58;11.10;;;1.83;;
67889;SDS011;54685;52.082;5.426;2022-12-29T15:22:26;12.55;;;2.83;;
67889;SDS011;54685;52.082;5.426;2022-12-29T15:24:54;11.30;;;2.63;;
67889;SDS011;54685;52.082;5.426;2022-12-29T15:27:23;11.90;;;2.33;;
67889;SDS011;54685;52.082;5.426;2022-12-29T15:29:55;13.35;;;2.65;;
67889;SDS011;54685;52.082;5.426;2022-12-29T15:32:25;23.35;;;2.97;;
67889;SDS011;54685;52.082;5.426;2022-12-29T15:34:54;17.75;;;2.72;;
67889;SDS011;54685;52.082;5.426;2022-12-29T15:37:26;7.25;;;2.20;;
67889;SDS011;54685;52.082;5.426;2022-12-29T15:39:58;9.07;;;2.53;;
67889;SDS011;54685;52.082;5.426;2022-12-29T15:45:04;8.13;;;2.47;;
67889;SDS011;54685;52.082;5.426;2022-12-29T15:47:37;13.57;;;2.50;;
67889;SDS011;54685;52.082;5.426;2022-12-29T15:50:06;10.43;;;2.40;;
67889;SDS011;54685;52.082;5.426;2022-12-29T15:52:52;7.35;;;2.22;;
67889;SDS011;54685;52.082;5.426;2022-12-29T15:55:40;8.60;;;2.10;;
67889;SDS011;54685;52.082;5.426;2022-12-29T16:03:51;9.40;;;2.03;;
67889;SDS011;54685;52.082;5.426;2022-12-29T16:08:56;11.88;;;1.80;;
67889;SDS011;54685;52.082;5.426;2022-12-29T16:14:08;10.50;;;2.05;;
67889;SDS011;54685;52.082;5.426;2022-12-29T16:16:41;9.52;;;1.88;;
67889;SDS011;54685;52.082;5.426;2022-12-29T16:19:13;10.77;;;1.70;;
67889;SDS011;54685;52.082;5.426;2022-12-29T16:21:48;8.80;;;2.05;;
67889;SDS011;54685;52.082;5.426;2022-12-29T16:24:16;9.88;;;2.20;;
67889;SDS011;54685;52.082;5.426;2022-12-29T16:26:47;6.03;;;1.52;;
67889;SDS011;54685;52.082;5.426;2022-12-29T16:29:15;6.88;;;1.50;;
67889;SDS011;54685;52.082;5.426;2022-12-29T16:31:50;6.80;;;1.25;;
67889;SDS011;54685;52.082;5.426;2022-12-29T16:34:23;4.20;;;0.90;;
67889;SDS011;54685;52.082;5.426;2022-12-29T16:39:32;5.35;;;1.40;;
67889;SDS011;54685;52.082;5.426;2022-12-29T16:42:48;7.43;;;1.70;;
67889;SDS011;54685;52.082;5.426;2022-12-29T16:48:20;7.25;;;2.00;;
67889;SDS011;54685;52.082;5.426;2022-12-29T16:50:51;11.18;;;2.38;;
67889;SDS011;54685;52.082;5.426;2022-12-29T16:55:53;9.77;;;1.67;;
67889;SDS011;54685;52.082;5.426;2022-12-29T16:58:22;4.75;;;1.75;;
67889;SDS011;54685;52.082;5.426;2022-12-29T17:00:58;13.02;;;5.35;;
67889;SDS011;54685;52.082;5.426;2022-12-29T17:03:31;10.75;;;3.40;;
67889;SDS011;54685;52.082;5.426;2022-12-29T17:06:01;12.82;;;5.22;;
67889;SDS011;54685;52.082;5.426;2022-12-29T17:08:29;9.02;;;2.78;;
67889;SDS011;54685;52.082;5.426;2022-12-29T17:11:08;10.10;;;2.72;;
67889;SDS011;54685;52.082;5.426;2022-12-29T17:17:13;12.80;;;2.80;;
67889;SDS011;54685;52.082;5.426;2022-12-29T17:19:46;13.65;;;2.55;;
67889;SDS011;54685;52.082;5.426;2022-12-29T17:22:23;10.25;;;1.63;;
67889;SDS011;54685;52.082;5.426;2022-12-29T17:24:56;12.30;;;2.60;;
67889;SDS011;54685;52.082;5.426;2022-12-29T17:29:58;14.35;;;2.00;;
67889;SDS011;54685;52.082;5.426;2022-12-29T17:32:36;6.22;;;1.67;;
67889;SDS011;54685;52.082;5.426;2022-12-29T17:35:04;11.23;;;2.20;;
67889;SDS011;54685;52.082;5.426;2022-12-29T17:37:35;7.35;;;1.55;;
67889;SDS011;54685;52.082;5.426;2022-12-29T17:40:04;15.18;;;2.88;;
67889;SDS011;54685;52.082;5.426;2022-12-29T17:42:32;10.55;;;2.25;;
67889;SDS011;54685;52.082;5.426;2022-12-29T17:45:03;10.48;;;2.35;;
67889;SDS011;54685;52.082;5.426;2022-12-29T17:47:30;7.97;;;2.00;;
67889;SDS011;54685;52.082;5.426;2022-12-29T17:49:58;10.02;;;2.67;;
67889;SDS011;54685;52.082;5.426;2022-12-29T17:52:25;10.65;;;1.63;;
67889;SDS011;54685;52.082;5.426;2022-12-29T17:54:52;10.65;;;2.38;;
67889;SDS011;54685;52.082;5.426;2022-12-29T17:57:20;9.95;;;1.70;;
67889;SDS011;54685;52.082;5.426;2022-12-29T17:59:47;8.95;;;1.80;;
67889;SDS011;54685;52.082;5.426;2022-12-29T18:02:25;12.13;;;2.10;;
67889;SDS011;54685;52.082;5.426;2022-12-29T18:04:55;10.27;;;1.80;;
67889;SDS011;54685;52.082;5.426;2022-12-29T18:07:25;14.13;;;1.95;;
67889;SDS011;54685;52.082;5.426;2022-12-29T18:10:00;13.07;;;2.03;;
67889;SDS011;54685;52.082;5.426;2022-12-29T18:12:36;11.85;;;2.83;;
67889;SDS011;54685;52.082;5.426;2022-12-29T18:15:06;12.68;;;2.03;;